Clear Sky Current Weather (METAR) For Amsterdam Schiphol Airport

All times on the weather descriptions are local

Observed at 00:55 - (10 mins ago)

Clear Sky

15°C

Clear Sky
Clouds:
Wind: 060° at 01 knots
Visibility: Greater than 10km
QNH: 1023
Dew Point: 12°C
Runways with a headwind: Runway 06, Runway 09, Runways 36L/C/R

Sunrise Today: 05:20
Sunset Today: 22:08

Forecast Weather (TAF) For Amsterdam Schiphol Airport

Issued at 02:00 - (54 mins ago)


Runways with a headwind: Unable to determine, wind is clam

Forecast valid until 02:00 on Tuesday

METAR/TAF RAW METAR / TAF

EHAM 292255Z 06001KT CAVOK 15/12 Q1023 NOSIG

Weather Widget

Put weather from any of our airports on your website with our weather widget.

Find Another Search

Airport Search


Please Wait Please Wait - Loading
Close
Close

Login

Username:

Password:

Remember Me:

Remember me on this computer

Forgotten your password? Get a reset password sent to your registered e-mail address

Close

User Private Message

Subject:

Message: